Time;durP1;ratioP1;P1;durP2;ratioP2;P2;SDS_P1;SDS_P2;PMS_P1;PMS_P2;Temp;Humidity;BMP_temperature;BMP_pressure;BME280_temperature;BME280_humidity;BME280_pressure;Samples;Min_cycle;Max_cycle;Signal;HPM_P1;HPM_P2
2022/01/17 00:00:39;;;;;;;19.90;14.10;;;;;;;9.17;66.00;101435.81;5001578;28;101995;-48
2022/01/17 00:03:06;;;;;;;16.92;12.90;;;;;;;9.16;66.05;101439.59;5005319;28;102740;-48
2022/01/17 00:05:33;;;;;;;15.48;12.75;;;;;;;9.17;65.83;101434.97;5016123;28;102758;-48
2022/01/17 00:07:59;;;;;;;17.98;13.68;;;;;;;9.16;65.55;101434.16;5016504;28;103548;-49
2022/01/17 00:10:28;;;;;;;15.60;12.57;;;;;;;9.17;65.57;101430.38;4990996;28;102468;-50
2022/01/17 00:12:58;;;;;;;17.38;13.00;;;;;;;9.16;65.65;101428.72;5008303;28;102847;-48
2022/01/17 00:15:31;;;;;;;18.83;13.05;;;;;;;9.15;66.25;101427.88;5013100;28;102359;-48
2022/01/17 00:18:27;;;;;;;19.65;13.35;;;;;;;9.16;65.75;101417.88;5015105;28;103359;-48
2022/01/17 00:20:46;;;;;;;17.40;13.35;;;;;;;9.15;66.09;101413.47;4998190;28;106062;-48
2022/01/17 00:23:14;;;;;;;16.63;12.60;;;;;;;9.16;65.54;101407.00;5006845;27;102158;-48
2022/01/17 00:25:40;;;;;;;17.27;13.38;;;;;;;9.17;65.50;101405.13;5010516;28;102230;-49
2022/01/17 00:28:08;;;;;;;16.83;12.80;;;;;;;9.16;66.47;101398.84;5001692;28;103825;-48
2022/01/17 00:30:34;;;;;;;17.48;12.82;;;;;;;9.15;65.47;101394.47;5017069;27;102375;-48
2022/01/17 00:33:01;;;;;;;17.05;12.48;;;;;;;9.15;65.81;101383.63;5013677;28;102036;-48
2022/01/17 00:35:28;;;;;;;15.48;11.95;;;;;;;9.15;65.46;101389.88;5012318;28;102487;-48
2022/01/17 00:37:54;;;;;;;16.00;12.68;;;;;;;9.16;65.86;101382.56;5016420;28;104143;-49
2022/01/17 00:40:22;;;;;;;15.95;12.48;;;;;;;9.16;66.10;101374.41;5006878;28;102164;-48
2022/01/17 00:42:49;;;;;;;15.23;11.73;;;;;;;9.15;66.59;101361.88;5006776;28;102506;-49
2022/01/17 00:45:19;;;;;;;15.07;12.05;;;;;;;9.16;65.72;101358.13;5017012;28;102244;-50
2022/01/17 00:47:50;;;;;;;15.57;12.18;;;;;;;9.15;65.73;101356.47;5014332;28;103913;-48
2022/01/17 00:50:16;;;;;;;17.38;12.45;;;;;;;9.15;66.25;101348.31;5005663;28;102589;-48
2022/01/17 00:52:43;;;;;;;15.65;12.50;;;;;;;9.15;66.16;101351.03;5013529;28;103463;-49
2022/01/17 00:55:10;;;;;;;14.88;11.75;;;;;;;9.15;66.13;101348.31;5019110;28;102627;-48
2022/01/17 00:57:36;;;;;;;14.85;11.77;;;;;;;9.15;65.35;101348.31;5013798;27;103717;-50
2022/01/17 01:00:05;;;;;;;17.50;11.55;;;;;;;9.14;65.43;101333.09;5013598;28;102023;-48
2022/01/17 01:02:33;;;;;;;15.20;12.20;;;;;;;9.14;65.67;101327.66;5008959;28;102202;-49
2022/01/17 01:05:00;;;;;;;15.80;11.50;;;;;;;9.15;65.88;101326.59;5002339;28;102292;-48
2022/01/17 01:07:26;;;;;;;16.83;12.38;;;;;;;9.14;65.96;101312.19;5012128;28;103989;-49
2022/01/17 01:12:32;;;;;;;15.60;11.63;;;;;;;9.14;65.64;101309.47;5013674;28;102674;-48
2022/01/17 01:14:59;;;;;;;15.45;12.25;;;;;;;9.14;65.63;101306.75;5012821;28;102683;-48
2022/01/17 01:17:35;;;;;;;13.20;11.02;;;;;;;9.15;66.27;101299.44;5009909;28;104050;-48
2022/01/17 01:28:14;;;;;;;12.98;10.48;;;;;;;9.14;66.62;101292.38;5011805;28;103966;-49
2022/01/17 01:30:45;;;;;;;13.70;10.65;;;;;;;9.14;65.69;101285.03;5006417;28;102505;-49
2022/01/17 01:33:16;;;;;;;12.55;10.60;;;;;;;9.15;66.40;101275.00;5009554;28;102399;-49
2022/01/17 01:35:46;;;;;;;13.73;11.02;;;;;;;9.14;65.62;101273.34;5012571;28;102341;-49
2022/01/17 01:38:12;;;;;;;14.75;11.23;;;;;;;9.14;65.54;101276.06;5007579;28;103984;-49
2022/01/17 01:40:39;;;;;;;13.77;10.57;;;;;;;9.14;65.54;101270.63;5009861;28;102584;-48
2022/01/17 01:43:06;;;;;;;15.05;10.90;;;;;;;9.13;65.92;101261.69;5013419;28;102176;-49
2022/01/17 01:45:32;;;;;;;13.23;10.55;;;;;;;9.13;66.28;101250.00;5002817;28;102141;-48
2022/01/17 01:47:59;;;;;;;11.98;10.02;;;;;;;9.13;66.00;101255.44;5003724;28;104060;-48
2022/01/17 01:50:26;;;;;;;12.40;10.63;;;;;;;9.14;66.01;101251.63;5009065;28;103777;-48
2022/01/17 01:52:54;;;;;;;13.80;10.75;;;;;;;9.13;65.89;101255.44;4999178;28;102271;-48
2022/01/17 01:55:21;;;;;;;13.57;10.30;;;;;;;9.13;65.52;101244.56;4997947;28;102322;-49
2022/01/17 01:57:48;;;;;;;12.32;9.88;;;;;;;9.14;65.84;101246.19;5000812;28;104080;-48
2022/01/17 02:00:16;;;;;;;14.25;10.57;;;;;;;9.13;66.02;101245.38;5012008;28;102242;-49
2022/01/17 02:02:43;;;;;;;12.57;10.20;;;;;;;9.14;65.73;101243.47;5009836;28;102347;-49
2022/01/17 02:05:10;;;;;;;15.00;11.07;;;;;;;9.14;65.91;101240.78;5004975;28;102672;-49
2022/01/17 02:07:39;;;;;;;12.32;10.35;;;;;;;9.13;66.23;101234.53;5006010;28;103749;-48
2022/01/17 02:10:08;;;;;;;15.05;10.82;;;;;;;9.13;65.90;101225.56;5011412;27;102567;-49
2022/01/17 02:12:34;;;;;;;15.27;10.55;;;;;;;9.14;66.39;101227.19;5004872;28;102153;-48
2022/01/17 02:15:01;;;;;;;12.70;10.02;;;;;;;9.14;65.84;101229.91;5008724;28;102868;-48
2022/01/17 02:17:30;;;;;;;14.98;10.50;;;;;;;9.13;66.38;101218.22;5002975;28;104022;-49
2022/01/17 02:20:05;;;;;;;12.55;10.25;;;;;;;9.13;65.31;101218.22;5016050;28;102143;-48
2022/01/17 02:22:33;;;;;;;12.73;9.95;;;;;;;9.13;65.58;101217.41;5010976;28;102257;-48
2022/01/17 02:25:00;;;;;;;11.65;9.98;;;;;;;9.14;66.40;101219.03;5010946;28;102080;-48
2022/01/17 02:27:27;;;;;;;12.27;9.68;;;;;;;9.13;65.58;101211.97;5010186;28;104228;-49
2022/01/17 02:29:54;;;;;;;14.00;9.82;;;;;;;9.12;66.50;101211.16;5012865;28;102330;-47
2022/01/17 02:32:21;;;;;;;12.05;9.95;;;;;;;9.13;66.45;101218.22;5014282;28;102430;-48
2022/01/17 02:34:47;;;;;;;12.52;9.98;;;;;;;9.13;65.66;101204.66;5015340;28;102146;-49
2022/01/17 02:37:15;;;;;;;14.75;10.55;;;;;;;9.13;66.30;101196.50;5011544;28;103499;-49
2022/01/17 02:39:42;;;;;;;11.40;9.50;;;;;;;9.13;65.79;101192.97;5007565;28;104168;-48
2022/01/17 02:42:11;;;;;;;12.80;9.75;;;;;;;9.13;66.38;101184.81;5008319;28;102069;-48
2022/01/17 02:44:44;;;;;;;13.45;9.77;;;;;;;9.12;66.46;101181.28;5015072;28;102236;-49
2022/01/17 02:47:11;;;;;;;11.95;9.75;;;;;;;9.12;65.51;101175.88;5009497;28;104003;-48
2022/01/17 02:49:37;;;;;;;13.57;9.95;;;;;;;9.13;65.87;101179.41;5012349;28;102388;-48
2022/01/17 02:52:04;;;;;;;10.68;8.88;;;;;;;9.13;65.81;101179.41;5012227;28;102251;-48
2022/01/17 02:54:35;;;;;;;12.75;9.77;;;;;;;9.12;65.95;101175.88;5005301;28;102224;-49
2022/01/17 02:57:02;;;;;;;12.60;9.27;;;;;;;9.11;66.18;101176.09;4996609;28;104234;-48
2022/01/17 02:59:29;;;;;;;12.65;9.18;;;;;;;9.12;66.42;101181.28;5001572;28;102261;-48
2022/01/17 03:01:56;;;;;;;12.85;10.10;;;;;;;9.13;66.09;101179.41;5013300;28;102200;-48
2022/01/17 03:04:22;;;;;;;12.88;10.45;;;;;;;9.12;66.31;101167.72;5018048;28;102489;-48
2022/01/17 03:06:50;;;;;;;11.38;9.55;;;;;;;9.12;65.78;101166.88;5011718;28;103928;-49
2022/01/17 03:09:16;;;;;;;10.95;9.57;;;;;;;9.13;65.99;101163.09;5012345;28;102249;-48
2022/01/17 03:11:44;;;;;;;12.70;10.52;;;;;;;9.12;66.05;101150.56;5003850;28;102380;-50
2022/01/17 03:14:12;;;;;;;11.52;9.15;;;;;;;9.12;66.09;101145.16;5014748;28;102554;-50
2022/01/17 03:16:46;;;;;;;10.65;9.27;;;;;;;9.11;65.62;101138.91;5002705;28;104062;-49
2022/01/17 03:19:13;;;;;;;13.32;9.75;;;;;;;9.12;65.62;101140.56;5007536;28;102445;-48
2022/01/17 03:21:39;;;;;;;11.57;9.65;;;;;;;9.12;66.35;101139.72;4998589;28;102154;-48
2022/01/17 03:24:07;;;;;;;13.85;9.65;;;;;;;9.11;65.90;101138.09;5003745;28;102102;-49
2022/01/17 03:26:33;;;;;;;11.05;9.50;;;;;;;9.11;65.50;101138.91;5006648;28;103689;-47
2022/01/17 03:29:03;;;;;;;11.93;9.23;;;;;;;9.11;65.99;101133.47;5010197;28;102009;-49
2022/01/17 03:31:30;;;;;;;10.80;8.95;;;;;;;9.12;65.83;101139.72;5006668;28;102220;-48
2022/01/17 03:33:56;;;;;;;12.68;8.88;;;;;;;9.11;65.29;101121.78;5007592;28;102235;-49
2022/01/17 03:36:23;;;;;;;12.82;9.75;;;;;;;9.12;65.92;101126.13;5011846;28;103895;-47
2022/01/17 03:38:50;;;;;;;11.65;9.93;;;;;;;9.11;66.62;101121.78;5014420;28;102206;-49
2022/01/17 03:41:17;;;;;;;11.50;9.30;;;;;;;9.11;65.64;101119.06;5013418;28;102354;-48
2022/01/17 03:43:43;;;;;;;12.60;10.40;;;;;;;9.12;65.99;101120.72;5013553;28;102236;-49
2022/01/17 03:46:12;;;;;;;10.77;9.20;;;;;;;9.12;65.16;101118.00;5011142;28;103920;-48
2022/01/17 03:48:39;;;;;;;11.68;9.52;;;;;;;9.11;66.00;101105.50;5013004;28;102077;-48
2022/01/17 03:51:05;;;;;;;11.20;9.18;;;;;;;9.11;65.83;101102.78;5004901;28;102156;-49
2022/01/17 03:53:32;;;;;;;12.95;9.63;;;;;;;9.11;65.55;101105.50;5007993;28;102615;-49
2022/01/17 03:55:59;;;;;;;10.40;8.90;;;;;;;9.11;66.34;101095.47;4981323;28;104108;-47
2022/01/17 03:58:27;;;;;;;11.80;9.73;;;;;;;9.11;65.55;101095.47;5013163;28;102222;-50
2022/01/17 04:00:58;;;;;;;12.35;9.80;;;;;;;9.11;66.41;101094.63;5006847;28;101876;-47
2022/01/17 04:03:26;;;;;;;11.10;9.43;;;;;;;9.11;66.05;101078.34;5005217;28;102383;-48
2022/01/17 04:05:53;;;;;;;13.37;10.00;;;;;;;9.11;65.38;101078.34;5003228;27;104744;-48
2022/01/17 04:08:20;;;;;;;11.60;9.25;;;;;;;9.12;65.66;101077.25;5012937;28;102181;-48
2022/01/17 04:10:47;;;;;;;12.32;9.48;;;;;;;9.11;65.64;101078.34;5001260;28;102162;-48
2022/01/17 04:13:18;;;;;;;9.73;8.73;;;;;;;9.11;65.54;101072.91;5007820;28;102225;-48
2022/01/17 04:15:45;;;;;;;12.20;9.63;;;;;;;9.11;65.76;101068.31;5001369;28;104011;-49
2022/01/17 04:18:12;;;;;;;12.65;9.27;;;;;;;9.10;66.32;101061.25;5012997;28;102174;-47
2022/01/17 04:20:41;;;;;;;12.50;9.68;;;;;;;9.11;66.33;101051.19;5015730;28;102214;-49
2022/01/17 04:23:09;;;;;;;13.30;9.57;;;;;;;9.11;66.44;101052.00;5007755;28;102535;-49
2022/01/17 04:25:37;;;;;;;11.60;9.80;;;;;;;9.12;65.64;101042.81;5014789;28;102767;-49
2022/01/17 04:28:05;;;;;;;11.75;9.32;;;;;;;9.10;65.64;101039.53;5013351;28;102118;-48
2022/01/17 04:30:32;;;;;;;12.23;9.43;;;;;;;9.10;66.09;101034.09;5002708;28;101972;-48
2022/01/17 04:32:59;;;;;;;11.77;9.73;;;;;;;9.11;66.00;101018.63;5011977;28;102210;-48
2022/01/17 04:35:27;;;;;;;12.52;9.75;;;;;;;9.11;65.58;101016.72;5002600;28;104117;-48
2022/01/17 04:37:58;;;;;;;10.83;9.03;;;;;;;9.10;65.97;101011.56;5008542;28;102394;-49
2022/01/17 04:40:25;;;;;;;10.82;9.02;;;;;;;9.10;66.40;101012.38;5016509;28;102178;-49
2022/01/17 04:42:55;;;;;;;11.25;9.32;;;;;;;9.11;65.65;101010.47;5009059;28;102266;-48
2022/01/17 04:45:22;;;;;;;12.40;9.52;;;;;;;9.10;65.97;101006.94;5015905;28;103705;-48
2022/01/17 04:47:52;;;;;;;11.75;9.80;;;;;;;9.11;66.11;101010.47;5009076;28;102256;-49
2022/01/17 04:50:20;;;;;;;12.38;9.68;;;;;;;9.11;65.54;101014.00;5012578;28;105071;-48
2022/01/17 04:52:47;;;;;;;11.68;9.40;;;;;;;9.10;66.37;101009.66;5018587;28;102413;-48
2022/01/17 04:55:17;;;;;;;11.80;9.65;;;;;;;9.11;66.03;100996.91;5002002;28;103880;-49
2022/01/17 04:57:45;;;;;;;12.30;9.43;;;;;;;9.11;66.03;100994.19;5007203;28;102043;-48
2022/01/17 05:00:14;;;;;;;11.98;9.60;;;;;;;9.11;65.78;100991.47;5000525;28;102222;-49
2022/01/17 05:02:42;;;;;;;12.50;9.60;;;;;;;9.11;66.07;100988.75;5018472;28;102484;-47
2022/01/17 05:05:09;;;;;;;12.35;9.55;;;;;;;9.10;66.00;100987.94;5017982;28;104228;-48
2022/01/17 05:07:39;;;;;;;11.57;9.73;;;;;;;9.10;65.78;100984.41;5000402;28;102702;-49
2022/01/17 05:10:08;;;;;;;13.65;10.23;;;;;;;9.10;65.67;100978.97;5008161;28;102462;-48
2022/01/17 05:12:36;;;;;;;14.43;10.27;;;;;;;9.10;65.89;100985.22;5017800;28;102262;-48
2022/01/17 05:15:04;;;;;;;12.70;9.80;;;;;;;9.10;65.83;100981.69;5012714;28;103891;-49
2022/01/17 05:19:58;;;;;;;11.30;9.40;;;;;;;9.10;66.10;100963.50;5012691;28;102208;-48
2022/01/17 05:22:28;;;;;;;13.20;10.00;;;;;;;9.10;66.35;100963.50;5011694;28;102487;-48
2022/01/17 05:24:54;;;;;;;13.30;9.77;;;;;;;9.10;65.76;100963.50;5015962;28;104686;-48
2022/01/17 05:27:21;;;;;;;11.40;9.50;;;;;;;9.10;65.98;100973.53;5011031;28;102498;-49
2022/01/17 05:29:49;;;;;;;11.82;9.52;;;;;;;9.10;66.47;100966.22;5013357;28;102620;-48
2022/01/17 05:32:16;;;;;;;11.70;10.10;;;;;;;9.10;66.54;100962.69;5013050;28;102352;-49
2022/01/17 05:34:43;;;;;;;12.15;10.43;;;;;;;9.12;65.58;100960.50;5002075;28;104050;-49
2022/01/17 05:37:13;;;;;;;12.18;9.20;;;;;;;9.10;66.53;100946.38;5015118;28;101881;-49
2022/01/17 05:39:42;;;;;;;12.60;10.27;;;;;;;9.10;66.50;100941.78;5005932;28;102664;-49
2022/01/17 05:42:09;;;;;;;14.57;10.40;;;;;;;9.11;66.23;100942.59;5019111;28;102578;-49
2022/01/17 05:44:36;;;;;;;12.48;9.80;;;;;;;9.10;65.67;100935.53;5004292;27;104025;-48
2022/01/17 05:47:06;;;;;;;10.43;9.27;;;;;;;9.11;66.31;100937.16;5014665;28;102588;-48
2022/01/17 05:49:32;;;;;;;11.63;9.45;;;;;;;9.10;66.43;100921.97;5010757;28;102563;-48
2022/01/17 05:51:59;;;;;;;13.88;10.25;;;;;;;9.11;65.65;100929.00;5004263;28;102289;-49
2022/01/17 05:54:25;;;;;;;13.65;10.25;;;;;;;9.11;65.67;100918.16;5010307;28;103938;-48
2022/01/17 05:56:52;;;;;;;13.95;10.48;;;;;;;9.11;65.95;100912.72;5013702;28;101968;-48
2022/01/17 05:59:18;;;;;;;13.15;10.13;;;;;;;9.11;66.35;100918.16;5013545;28;102373;-49
2022/01/17 06:01:45;;;;;;;12.20;10.05;;;;;;;9.11;65.68;100916.25;5011153;28;102490;-49
2022/01/17 06:04:13;;;;;;;14.18;10.60;;;;;;;9.12;66.10;100914.34;5007443;28;103713;-47
2022/01/17 06:06:40;;;;;;;12.98;10.57;;;;;;;9.12;66.48;100911.63;5005680;28;102708;-48
2022/01/17 06:09:07;;;;;;;13.45;10.70;;;;;;;9.12;65.91;100906.22;5006295;28;102164;-48
2022/01/17 06:11:34;;;;;;;12.80;9.85;;;;;;;9.12;65.88;100895.34;5002631;28;103242;-49
2022/01/17 06:14:00;;;;;;;12.23;10.13;;;;;;;9.12;66.50;100901.63;4997100;28;103873;-49
2022/01/17 06:16:27;;;;;;;15.73;10.30;;;;;;;9.13;66.27;100902.44;5008734;28;102203;-49
2022/01/17 06:18:54;;;;;;;13.80;11.10;;;;;;;9.12;65.66;100903.50;5008620;28;102171;-47
2022/01/17 06:21:22;;;;;;;13.10;10.77;;;;;;;9.14;65.84;100904.06;5015838;28;102315;-49
2022/01/17 06:23:48;;;;;;;12.98;10.52;;;;;;;9.14;66.76;100898.63;5014244;28;104666;-49
2022/01/17 06:26:15;;;;;;;13.70;10.50;;;;;;;9.14;65.63;100895.94;5009908;28;102308;-48
2022/01/17 06:28:41;;;;;;;12.77;11.00;;;;;;;9.14;66.19;100882.34;5012433;28;102421;-48
2022/01/17 06:31:08;;;;;;;15.30;10.90;;;;;;;9.14;66.57;100887.78;5009121;28;102459;-49
2022/01/17 06:33:35;;;;;;;14.32;10.70;;;;;;;9.13;65.98;100876.09;5003304;28;104063;-49
2022/01/17 06:36:01;;;;;;;12.85;10.60;;;;;;;9.15;66.06;100873.94;5007490;28;102078;-49
2022/01/17 06:38:29;;;;;;;13.45;10.93;;;;;;;9.14;65.85;100855.19;5006935;28;102273;-49
2022/01/17 06:40:56;;;;;;;15.18;12.05;;;;;;;9.14;65.74;100855.19;5013064;28;102343;-48
2022/01/17 06:43:22;;;;;;;11.93;10.15;;;;;;;9.14;65.98;100838.91;5000451;28;103887;-48
2022/01/17 06:45:48;;;;;;;13.68;10.90;;;;;;;9.14;66.65;100839.72;5008266;28;102949;-48
2022/01/17 06:48:15;;;;;;;14.07;11.13;;;;;;;9.14;66.24;100845.16;5014102;28;103202;-48
2022/01/17 06:50:42;;;;;;;13.80;10.95;;;;;;;9.15;65.75;100840.53;5016371;28;102200;-48
2022/01/17 06:53:08;;;;;;;13.00;10.65;;;;;;;9.15;66.57;100837.81;5006353;28;103910;-47
2022/01/17 06:55:36;;;;;;;13.98;11.43;;;;;;;9.14;65.77;100828.84;4991669;28;102310;-48
2022/01/17 06:58:05;;;;;;;12.75;10.48;;;;;;;9.15;66.11;100816.91;5001605;28;102761;-49
2022/01/17 07:00:32;;;;;;;13.57;11.30;;;;;;;9.15;65.75;100807.94;5003539;28;103891;-48
2022/01/17 07:02:58;;;;;;;15.32;11.70;;;;;;;9.14;65.79;100785.41;4995724;28;103905;-48
2022/01/17 07:05:25;;;;;;;15.70;11.57;;;;;;;9.16;66.00;100771.59;5000677;28;102804;-48
2022/01/17 07:07:51;;;;;;;14.15;11.32;;;;;;;9.15;66.70;100754.47;5005763;28;102316;-48
2022/01/17 07:10:18;;;;;;;13.57;11.02;;;;;;;9.15;66.51;100748.22;5002180;28;102415;-50
2022/01/17 07:12:53;;;;;;;13.00;10.35;;;;;;;9.16;66.54;100736.31;4997395;28;104190;-48
2022/01/17 07:15:20;;;;;;;13.93;10.80;;;;;;;9.15;66.23;100721.06;5012940;28;102035;-49
2022/01/17 07:17:46;;;;;;;12.93;10.80;;;;;;;9.15;66.23;100718.34;5004873;28;105660;-47
2022/01/17 07:20:13;;;;;;;14.55;11.40;;;;;;;9.16;66.17;100714.59;5008596;28;102227;-49
2022/01/17 07:22:42;;;;;;;13.27;10.98;;;;;;;9.16;66.51;100725.44;5000884;28;104301;-49
2022/01/17 07:25:09;;;;;;;15.70;11.90;;;;;;;9.16;65.78;100768.88;5004948;28;102523;-51
2022/01/17 07:27:36;;;;;;;14.07;11.75;;;;;;;9.17;65.99;100788.72;5002115;28;102466;-48
2022/01/17 07:30:06;;;;;;;11.98;10.30;;;;;;;9.16;65.84;100820.47;5001829;28;102641;-48
2022/01/17 07:32:34;;;;;;;13.30;10.93;;;;;;;9.16;65.96;100839.47;4999006;28;104119;-49
2022/01/17 07:35:07;;;;;;;11.45;10.25;;;;;;;9.15;65.96;100835.91;5005694;28;102325;-50
2022/01/17 07:37:34;;;;;;;14.88;11.77;;;;;;;9.15;66.09;100827.78;5000147;28;102327;-48
2022/01/17 07:40:01;;;;;;;14.52;11.00;;;;;;;9.15;66.00;100797.91;5005141;28;102260;-49
2022/01/17 07:42:28;;;;;;;13.40;10.98;;;;;;;9.16;66.42;100766.16;4998247;28;104064;-48
2022/01/17 07:44:57;;;;;;;14.32;11.13;;;;;;;9.15;65.81;100726.50;5001944;27;102140;-48
2022/01/17 07:47:41;;;;;;;13.48;11.23;;;;;;;9.16;66.53;100717.28;5010666;28;102524;-48
2022/01/17 07:50:13;;;;;;;13.57;11.27;;;;;;;9.15;65.72;100710.22;5003998;28;102460;-48
2022/01/17 07:52:40;;;;;;;14.13;11.20;;;;;;;9.15;65.76;100732.75;5011356;28;103934;-48
2022/01/17 07:55:07;;;;;;;13.52;11.52;;;;;;;9.15;66.29;100776.19;5005394;28;102373;-50
2022/01/17 07:57:33;;;;;;;13.18;10.38;;;;;;;9.15;66.21;100830.50;5010541;28;102119;-49
2022/01/17 08:00:00;;;;;;;14.35;11.77;;;;;;;9.16;66.60;100853.06;5005904;28;102668;-48
2022/01/17 08:02:27;;;;;;;13.10;10.68;;;;;;;9.17;66.46;100867.44;5007728;28;104134;-48
2022/01/17 08:04:54;;;;;;;13.35;10.93;;;;;;;9.17;65.70;100870.97;5006803;28;103424;-49
2022/01/17 08:07:22;;;;;;;12.70;11.25;;;;;;;9.18;65.71;100872.59;5006889;28;102620;-49
2022/01/17 08:09:48;;;;;;;11.80;10.43;;;;;;;9.18;65.59;100858.22;4995391;28;102771;-48
2022/01/17 08:12:15;;;;;;;12.75;10.50;;;;;;;9.16;66.70;100847.63;5006065;28;104036;-47
2022/01/17 08:14:42;;;;;;;13.70;10.98;;;;;;;9.17;66.62;100807.72;5004044;28;103372;-49
2022/01/17 08:17:08;;;;;;;14.52;11.43;;;;;;;9.18;65.91;100772.13;5005131;28;102621;-47
2022/01/17 08:19:37;;;;;;;13.95;11.93;;;;;;;9.18;66.60;100768.63;5009237;28;102218;-48
2022/01/17 08:22:05;;;;;;;13.27;11.27;;;;;;;9.16;66.49;100752.59;5012492;28;104053;-48
2022/01/17 08:24:33;;;;;;;12.93;11.20;;;;;;;9.18;66.15;100725.97;5005612;28;102742;-48
2022/01/17 08:27:00;;;;;;;13.10;11.30;;;;;;;9.18;66.92;100704.25;5015010;28;102119;-48
2022/01/17 08:29:28;;;;;;;13.48;10.98;;;;;;;9.18;66.20;100690.69;5012129;28;102251;-48
2022/01/17 08:31:55;;;;;;;12.93;11.07;;;;;;;9.18;66.56;100708.88;5011624;28;103838;-48
2022/01/17 08:34:21;;;;;;;12.55;10.32;;;;;;;9.18;66.15;100725.16;5009354;28;102420;-49
2022/01/17 08:36:49;;;;;;;12.63;10.52;;;;;;;9.19;66.60;100718.66;5010642;28;103922;-48
2022/01/17 08:39:16;;;;;;;13.93;11.70;;;;;;;9.18;66.11;100720.56;5010571;28;104818;-49
2022/01/17 08:41:43;;;;;;;13.50;11.18;;;;;;;9.18;66.56;100725.97;5007607;28;103948;-49
2022/01/17 08:44:10;;;;;;;13.57;10.52;;;;;;;9.18;65.90;100709.69;4999827;28;102751;-48
2022/01/17 08:46:36;;;;;;;12.50;11.07;;;;;;;9.18;65.70;100693.41;5004719;28;102739;-48
2022/01/17 08:49:03;;;;;;;14.57;10.88;;;;;;;9.18;66.46;100687.97;5007378;28;102692;-48
2022/01/17 08:51:29;;;;;;;14.27;11.18;;;;;;;9.19;65.81;100678.72;5004251;28;104085;-48
2022/01/17 08:53:58;;;;;;;13.00;10.45;;;;;;;9.19;65.93;100678.72;5018067;28;102563;-48
2022/01/17 08:56:27;;;;;;;12.40;10.50;;;;;;;9.19;65.71;100659.72;5005771;28;102926;-49
2022/01/17 08:58:54;;;;;;;13.68;11.38;;;;;;;9.19;66.35;100662.44;5010929;28;102219;-47
2022/01/17 09:01:22;;;;;;;13.55;11.02;;;;;;;9.20;66.58;100666.81;5006092;28;104106;-48
2022/01/17 09:03:49;;;;;;;12.45;10.82;;;;;;;9.20;66.13;100657.84;5004817;28;102488;-48
2022/01/17 09:06:16;;;;;;;13.65;11.05;;;;;;;9.20;65.77;100655.94;5014202;28;102144;-48
2022/01/17 09:08:43;;;;;;;15.52;11.57;;;;;;;9.19;66.27;100643.44;5016903;28;102582;-48
2022/01/17 09:11:11;;;;;;;13.45;11.30;;;;;;;9.20;66.69;100655.94;5003574;28;104085;-49
2022/01/17 09:13:38;;;;;;;13.52;10.95;;;;;;;9.21;66.80;100659.47;5006964;28;102269;-49
2022/01/17 09:16:05;;;;;;;13.60;11.38;;;;;;;9.20;66.14;100653.25;5009071;28;102942;-49
2022/01/17 09:18:32;;;;;;;13.23;10.88;;;;;;;9.20;66.23;100647.81;5016908;28;102342;-48
2022/01/17 09:20:59;;;;;;;14.77;12.05;;;;;;;9.20;66.05;100650.53;5005717;28;103709;-48
2022/01/17 09:23:26;;;;;;;13.63;11.43;;;;;;;9.20;66.16;100647.81;5006045;28;102570;-49
2022/01/17 09:25:52;;;;;;;12.45;10.88;;;;;;;9.20;66.00;100631.50;5013331;28;102076;-48
2022/01/17 09:28:21;;;;;;;12.80;11.43;;;;;;;9.21;65.66;100635.03;4997966;28;102354;-48
2022/01/17 09:30:47;;;;;;;13.57;11.37;;;;;;;9.20;66.69;100631.50;5009685;28;103928;-49
2022/01/17 09:33:14;;;;;;;15.43;11.90;;;;;;;9.21;66.55;100625.00;5014145;28;102022;-49
2022/01/17 09:35:40;;;;;;;12.48;10.57;;;;;;;9.20;66.31;100626.09;5014166;28;102787;-49
2022/01/17 09:38:07;;;;;;;14.55;11.90;;;;;;;9.21;66.05;100627.72;5011360;28;102327;-48
2022/01/17 09:40:34;;;;;;;12.82;10.90;;;;;;;9.21;65.90;100613.31;5008431;28;102765;-48
2022/01/17 09:43:02;;;;;;;12.75;10.90;;;;;;;9.21;65.83;100610.59;5010059;28;102649;-48
2022/01/17 09:45:30;;;;;;;14.13;11.20;;;;;;;9.22;66.62;100628.53;5004932;28;106818;-47
2022/01/17 09:47:57;;;;;;;13.83;10.40;;;;;;;9.20;66.43;100620.66;5014589;28;102318;-48
2022/01/17 09:50:33;;;;;;;13.48;11.30;;;;;;;9.21;66.49;100603.28;5004745;28;103969;-49
2022/01/17 09:53:02;;;;;;;12.95;11.10;;;;;;;9.21;65.74;100597.03;5005232;28;102642;-50
2022/01/17 09:55:30;;;;;;;12.80;11.18;;;;;;;9.21;66.22;100584.25;5015297;28;102220;-49
2022/01/17 09:58:01;;;;;;;13.52;11.82;;;;;;;9.20;66.45;100577.22;5006686;28;102654;-48
2022/01/17 10:00:32;;;;;;;12.60;10.75;;;;;;;9.21;65.91;100573.41;5002682;28;104218;-48
2022/01/17 10:03:02;;;;;;;14.25;11.38;;;;;;;9.21;66.51;100562.53;5010890;28;102534;-49
2022/01/17 10:05:29;;;;;;;14.20;11.90;;;;;;;9.21;65.89;100557.09;5007938;28;102436;-49
2022/01/17 10:08:00;;;;;;;14.48;11.52;;;;;;;9.22;65.60;100558.72;5009503;28;102407;-48
2022/01/17 10:10:38;;;;;;;15.00;12.00;;;;;;;9.23;66.39;100579.41;5005182;28;103959;-49
2022/01/17 10:13:07;;;;;;;14.17;12.20;;;;;;;9.23;66.26;100573.97;5014757;28;102859;-48
2022/01/17 10:15:45;;;;;;;13.45;11.38;;;;;;;9.25;66.10;100573.69;5006812;28;102291;-49
2022/01/17 10:18:24;;;;;;;13.77;10.98;;;;;;;9.25;66.26;100566.34;5010012;28;102523;-48
2022/01/17 10:20:56;;;;;;;14.48;11.82;;;;;;;9.25;67.16;100544.63;5003486;28;103887;-47
2022/01/17 10:26:39;;;;;;;13.25;10.82;;;;;;;9.26;67.14;100540.81;5001714;28;102246;-47
2022/01/17 10:37:22;;;;;;;13.77;11.25;;;;;;;9.28;66.82;100514.22;5013423;28;102604;-49
2022/01/17 10:39:54;;;;;;;13.90;10.95;;;;;;;9.27;66.34;100520.75;5010892;27;102535;-48
2022/01/17 10:42:32;;;;;;;12.80;10.48;;;;;;;9.28;66.39;100519.66;5013931;28;104012;-49
2022/01/17 10:45:04;;;;;;;14.38;11.85;;;;;;;9.29;66.65;100515.03;5002654;28;103011;-48
2022/01/17 10:47:39;;;;;;;15.00;11.40;;;;;;;9.28;66.87;100497.94;4997506;28;102177;-48
2022/01/17 10:50:09;;;;;;;13.43;11.52;;;;;;;9.28;67.21;100469.97;4999478;28;104908;-47
2022/01/17 10:52:39;;;;;;;12.80;11.20;;;;;;;9.29;66.33;100472.41;5006723;28;103935;-48
2022/01/17 10:55:09;;;;;;;14.93;11.48;;;;;;;9.28;67.12;100459.91;5008822;28;102115;-49
2022/01/17 10:57:39;;;;;;;13.27;11.13;;;;;;;9.29;66.88;100445.25;4997099;28;102194;-48
2022/01/17 11:00:10;;;;;;;15.18;11.13;;;;;;;9.27;66.89;100428.44;5015483;28;102168;-48
2022/01/17 11:02:42;;;;;;;13.30;11.15;;;;;;;9.29;66.98;100433.56;5004130;28;103972;-47
2022/01/17 11:05:11;;;;;;;15.95;12.68;;;;;;;9.28;67.04;100431.94;5007232;28;103578;-49
2022/01/17 11:07:43;;;;;;;14.93;11.93;;;;;;;9.28;66.90;100432.75;5014614;28;102216;-48
2022/01/17 11:10:18;;;;;;;13.05;10.65;;;;;;;9.29;66.45;100431.66;5011180;28;102212;-49
2022/01/17 11:12:44;;;;;;;12.20;10.75;;;;;;;9.29;67.24;100426.25;5005338;28;107800;-48
2022/01/17 11:15:13;;;;;;;12.77;10.98;;;;;;;9.29;67.03;100423.53;4999072;28;102399;-49
2022/01/17 11:17:48;;;;;;;12.95;11.23;;;;;;;9.29;67.04;100428.97;5001866;28;102846;-49
2022/01/17 11:20:19;;;;;;;12.73;10.60;;;;;;;9.29;66.17;100412.66;5005325;28;102202;-48
2022/01/17 11:22:48;;;;;;;13.65;11.45;;;;;;;9.29;66.93;100404.50;4982141;28;103880;-48
2022/01/17 11:25:18;;;;;;;13.60;11.00;;;;;;;9.29;66.17;100396.38;4977644;28;102608;-48
2022/01/17 11:27:45;;;;;;;12.73;11.23;;;;;;;9.29;66.23;100385.50;4986768;28;102625;-48
2022/01/17 11:30:14;;;;;;;12.10;10.30;;;;;;;9.29;66.19;100392.84;4992523;28;102167;-48
2022/01/17 11:32:43;;;;;;;14.10;11.27;;;;;;;9.29;66.67;100393.66;4981494;28;104679;-49
2022/01/17 11:35:10;;;;;;;12.57;10.68;;;;;;;9.30;66.81;100403.41;4986871;28;103372;-49
2022/01/17 11:37:40;;;;;;;11.63;9.90;;;;;;;9.30;66.28;100398.00;5002108;27;102643;-49
2022/01/17 11:40:10;;;;;;;12.48;10.68;;;;;;;9.29;66.79;100380.06;5013708;27;102105;-47